Time;durP1;ratioP1;P1;durP2;ratioP2;P2;SDS_P1;SDS_P2;PMS_P1;PMS_P2;Temp;Humidity;BMP_temperature;BMP_pressure;BME280_temperature;BME280_humidity;BME280_pressure;Samples;Min_cycle;Max_cycle;Signal;HPM_P1;HPM_P2
2023/05/08 00:00:26;;;;;;;10.90;7.75;;;15.50;99.90;;;;;;5071831;28;20054;-50
2023/05/08 00:02:51;;;;;;;10.18;8.15;;;15.40;99.90;;;;;;5072246;28;20036;-50
2023/05/08 00:05:17;;;;;;;8.65;7.85;;;15.30;99.90;;;;;;5071678;28;20029;-49
2023/05/08 00:07:43;;;;;;;9.82;8.82;;;15.30;99.90;;;;;;5071605;28;20055;-49
2023/05/08 00:10:09;;;;;;;10.02;9.02;;;15.30;99.90;;;;;;5071864;28;20023;-50
2023/05/08 00:12:35;;;;;;;11.60;8.55;;;15.30;99.90;;;;;;5071461;28;20392;-47
2023/05/08 00:15:00;;;;;;;9.80;8.05;;;15.30;99.90;;;;;;5071729;28;20024;-48
2023/05/08 00:17:26;;;;;;;8.70;7.80;;;15.30;99.90;;;;;;5071457;28;20029;-50
2023/05/08 00:19:52;;;;;;;10.75;9.05;;;15.30;99.90;;;;;;5071800;28;20105;-49
2023/05/08 00:22:18;;;;;;;10.35;8.32;;;15.30;99.90;;;;;;5071377;28;20020;-47
2023/05/08 00:24:44;;;;;;;9.45;8.50;;;15.20;99.90;;;;;;5071510;28;20028;-53
2023/05/08 00:27:09;;;;;;;9.10;8.30;;;15.20;99.90;;;;;;5071242;28;20095;-46
2023/05/08 00:29:35;;;;;;;9.85;8.85;;;15.20;99.90;;;;;;5071145;28;20051;-46
2023/05/08 00:32:01;;;;;;;12.20;9.88;;;15.10;99.90;;;;;;5071533;28;20073;-46
2023/05/08 00:34:26;;;;;;;12.75;9.73;;;15.10;99.90;;;;;;5071688;28;20093;-49
2023/05/08 00:36:52;;;;;;;12.05;10.27;;;15.10;99.90;;;;;;5071618;28;20025;-50
2023/05/08 00:39:17;;;;;;;10.13;9.02;;;15.00;99.90;;;;;;5070406;28;20034;-47
2023/05/08 00:41:43;;;;;;;10.95;8.52;;;15.00;99.90;;;;;;5071163;28;20024;-47
2023/05/08 00:44:08;;;;;;;10.07;8.65;;;15.00;99.90;;;;;;5071444;28;20029;-48
2023/05/08 00:46:35;;;;;;;12.65;8.93;;;14.90;99.90;;;;;;5070924;28;20398;-45
2023/05/08 00:49:01;;;;;;;12.77;9.48;;;14.90;99.90;;;;;;5071429;28;20503;-50
2023/05/08 00:51:27;;;;;;;12.27;8.77;;;14.80;99.90;;;;;;5071093;28;20012;-47
2023/05/08 00:53:53;;;;;;;11.40;9.63;;;14.80;99.90;;;;;;5071307;28;20021;-48
2023/05/08 00:56:20;;;;;;;12.38;9.18;;;14.80;99.90;;;;;;5070805;28;20028;-51
2023/05/08 00:58:46;;;;;;;11.75;10.02;;;14.80;99.90;;;;;;5071308;28;20036;-50
2023/05/08 01:01:13;;;;;;;9.93;8.85;;;14.70;99.90;;;;;;5071113;28;20025;-46
2023/05/08 01:03:39;;;;;;;10.82;9.55;;;14.70;99.90;;;;;;5071239;28;20021;-48
2023/05/08 01:06:05;;;;;;;10.48;9.48;;;14.70;99.90;;;;;;5071225;28;20127;-45
2023/05/08 01:08:31;;;;;;;10.32;9.25;;;14.70;99.90;;;;;;5071098;28;20492;-46
2023/05/08 01:11:02;;;;;;;11.27;10.13;;;14.70;99.90;;;;;;5071119;28;20044;-48
2023/05/08 01:13:40;;;;;;;10.77;9.65;;;14.70;99.90;;;;;;5071137;28;20027;-47
2023/05/08 01:16:35;;;;;;;14.20;9.82;;;14.70;99.90;;;;;;5071021;28;20035;-49
2023/05/08 01:19:25;;;;;;;10.43;9.43;;;14.70;99.90;;;;;;5071188;28;20513;-47
2023/05/08 01:21:59;;;;;;;10.48;9.43;;;14.70;99.90;;;;;;5070870;28;20407;-47
2023/05/08 01:25:09;;;;;;;13.90;9.98;;;14.60;99.90;;;;;;5070833;28;20017;-46
2023/05/08 01:28:04;;;;;;;10.93;9.80;;;14.60;99.90;;;;;;5024504;28;20044;-46
2023/05/08 01:30:47;;;;;;;12.13;9.95;;;14.60;99.90;;;;;;5070721;28;20384;-47
2023/05/08 01:33:20;;;;;;;11.10;9.95;;;14.70;99.90;;;;;;5071076;28;20372;-47
2023/05/08 01:36:41;;;;;;;11.70;10.50;;;14.60;99.90;;;;;;5070859;28;20040;-47
2023/05/08 01:39:30;;;;;;;12.25;10.52;;;14.50;99.90;;;;;;4997657;28;20034;-48
2023/05/08 01:42:07;;;;;;;11.52;10.38;;;14.50;99.90;;;;;;5074809;28;20107;-47
2023/05/08 01:44:36;;;;;;;12.32;10.90;;;14.50;99.90;;;;;;5074540;28;20047;-49
2023/05/08 01:47:08;;;;;;;10.32;9.43;;;14.40;99.90;;;;;;5074183;28;20036;-47
2023/05/08 01:49:42;;;;;;;11.13;9.45;;;14.40;99.90;;;;;;5074484;28;20028;-48
2023/05/08 01:52:30;;;;;;;11.02;9.35;;;14.40;99.90;;;;;;5074137;28;20024;-49
2023/05/08 01:55:04;;;;;;;10.95;9.85;;;14.40;99.90;;;;;;5074326;28;20104;-48
2023/05/08 01:57:33;;;;;;;10.68;9.57;;;14.30;99.90;;;;;;5073949;28;20028;-51
2023/05/08 02:00:01;;;;;;;12.68;10.45;;;14.30;99.90;;;;;;5074421;28;20020;-46
2023/05/08 02:02:30;;;;;;;14.38;9.48;;;14.30;99.90;;;;;;5074067;28;20056;-46
2023/05/08 02:04:56;;;;;;;10.70;9.70;;;14.30;99.90;;;;;;5074453;28;20130;-49
2023/05/08 02:07:22;;;;;;;11.25;10.00;;;14.20;99.90;;;;;;5073967;28;20044;-49
2023/05/08 02:09:49;;;;;;;10.77;9.50;;;14.30;99.90;;;;;;5074113;28;20365;-48
2023/05/08 02:12:16;;;;;;;10.52;9.43;;;14.20;99.90;;;;;;5073924;28;20046;-46
2023/05/08 02:14:45;;;;;;;15.77;10.35;;;14.20;99.90;;;;;;5074025;28;20025;-51
2023/05/08 02:17:11;;;;;;;11.35;9.93;;;14.20;99.90;;;;;;5072387;28;20029;-50
2023/05/08 02:19:39;;;;;;;11.35;10.13;;;14.10;99.90;;;;;;5056263;28;20499;-47
2023/05/08 02:22:07;;;;;;;11.55;10.35;;;14.10;99.90;;;;;;5073658;28;20392;-50
2023/05/08 02:24:34;;;;;;;16.98;10.43;;;14.10;99.90;;;;;;5073622;28;20017;-47
2023/05/08 02:27:00;;;;;;;10.52;8.80;;;14.10;99.90;;;;;;5073508;28;20021;-47
2023/05/08 02:29:27;;;;;;;15.52;10.38;;;14.10;99.90;;;;;;5073781;28;20023;-47
2023/05/08 02:31:54;;;;;;;13.30;10.68;;;14.10;99.90;;;;;;5073578;28;20020;-45
2023/05/08 02:34:22;;;;;;;12.57;10.00;;;14.10;99.90;;;;;;5073679;28;20517;-45
2023/05/08 02:36:52;;;;;;;11.30;9.32;;;14.10;99.90;;;;;;5055118;28;20032;-48
2023/05/08 02:39:20;;;;;;;11.50;10.35;;;14.10;99.90;;;;;;5072665;28;20067;-46
2023/05/08 02:41:46;;;;;;;11.38;10.20;;;14.10;99.90;;;;;;5073365;28;20072;-47
2023/05/08 02:44:12;;;;;;;10.95;9.85;;;14.10;99.90;;;;;;5073519;28;20048;-47
2023/05/08 02:46:44;;;;;;;11.45;9.65;;;14.10;99.90;;;;;;5073235;28;20040;-50
2023/05/08 02:49:26;;;;;;;11.07;9.93;;;14.10;99.90;;;;;;5073608;28;20047;-47
2023/05/08 02:52:12;;;;;;;11.90;10.75;;;14.00;99.90;;;;;;5072313;28;20084;-47
2023/05/08 02:54:50;;;;;;;11.48;9.43;;;14.00;99.90;;;;;;5073411;28;20095;-47
2023/05/08 02:57:56;;;;;;;12.43;9.07;;;13.90;99.90;;;;;;5072987;28;20032;-49
2023/05/08 03:00:26;;;;;;;10.65;9.57;;;13.90;99.90;;;;;;5073454;28;20388;-50
2023/05/08 03:02:56;;;;;;;11.65;10.45;;;13.90;99.90;;;;;;5055449;28;20078;-48
2023/05/08 03:05:34;;;;;;;10.95;8.75;;;13.90;99.90;;;;;;5073065;28;20058;-51
2023/05/08 03:08:04;;;;;;;9.73;8.82;;;13.80;99.90;;;;;;5072741;28;20384;-48
2023/05/08 03:10:33;;;;;;;10.82;9.73;;;13.80;99.90;;;;;;5072744;28;20574;-47
2023/05/08 03:13:02;;;;;;;12.05;9.60;;;13.80;99.90;;;;;;5072995;28;20032;-48
2023/05/08 03:15:43;;;;;;;11.25;9.38;;;13.80;99.90;;;;;;5072865;28;20502;-51
2023/05/08 03:18:13;;;;;;;12.35;9.82;;;13.80;99.90;;;;;;5072517;28;20024;-46
2023/05/08 03:20:43;;;;;;;10.13;9.23;;;13.80;99.90;;;;;;5072771;28;20448;-44
2023/05/08 03:23:12;;;;;;;10.05;9.07;;;13.80;99.90;;;;;;5072730;28;20025;-46
2023/05/08 03:25:40;;;;;;;18.00;9.93;;;13.70;99.90;;;;;;5073007;28;20024;-47
2023/05/08 03:28:06;;;;;;;9.98;8.98;;;13.70;99.90;;;;;;5072324;28;20484;-50
2023/05/08 03:30:36;;;;;;;10.30;9.30;;;13.70;99.90;;;;;;5072196;28;20032;-49
2023/05/08 03:33:03;;;;;;;9.38;8.43;;;13.70;99.90;;;;;;5072515;28;20021;-47
2023/05/08 03:35:30;;;;;;;10.70;9.55;;;13.70;99.90;;;;;;5072198;28;20495;-51
2023/05/08 03:37:56;;;;;;;15.48;9.25;;;13.80;99.90;;;;;;5072012;28;20039;-46
2023/05/08 03:40:22;;;;;;;10.40;9.32;;;13.70;99.90;;;;;;5071207;28;20021;-48
2023/05/08 03:42:49;;;;;;;10.02;8.88;;;13.80;99.90;;;;;;5072321;28;20024;-51
2023/05/08 03:45:15;;;;;;;11.13;8.93;;;13.80;99.90;;;;;;5071792;28;20027;-51
2023/05/08 03:47:42;;;;;;;10.18;9.18;;;13.70;99.90;;;;;;5071843;28;20020;-50
2023/05/08 03:50:08;;;;;;;10.02;8.95;;;13.70;99.90;;;;;;5072536;28;20457;-46
2023/05/08 03:52:34;;;;;;;9.70;8.80;;;13.70;99.90;;;;;;5071876;28;20021;-51
2023/05/08 03:55:03;;;;;;;9.88;8.98;;;13.70;99.90;;;;;;5054086;28;20029;-51
2023/05/08 03:57:36;;;;;;;10.18;8.82;;;13.70;99.90;;;;;;5071720;28;20056;-45
2023/05/08 04:00:12;;;;;;;12.73;9.15;;;13.70;99.90;;;;;;5072090;28;20024;-48
2023/05/08 04:02:42;;;;;;;11.15;9.52;;;13.70;99.90;;;;;;5071590;28;20025;-46
2023/05/08 04:05:42;;;;;;;11.00;8.88;;;13.60;99.90;;;;;;5071853;28;20017;-52
2023/05/08 04:08:23;;;;;;;11.50;10.00;;;13.60;99.90;;;;;;5071616;28;20016;-47
2023/05/08 04:11:07;;;;;;;11.32;9.30;;;13.60;99.90;;;;;;5071623;28;20112;-46
2023/05/08 04:13:38;;;;;;;10.25;9.18;;;13.60;99.90;;;;;;5071857;28;20091;-46
2023/05/08 04:16:13;;;;;;;10.75;9.38;;;13.50;99.90;;;;;;5071864;28;20032;-46
2023/05/08 04:18:45;;;;;;;12.60;9.02;;;13.50;99.90;;;;;;5071354;28;20070;-46
2023/05/08 04:21:15;;;;;;;10.30;9.15;;;13.40;99.90;;;;;;5071567;28;20017;-47
2023/05/08 04:23:43;;;;;;;10.60;8.70;;;13.40;99.90;;;;;;5071649;28;20023;-51
2023/05/08 04:26:10;;;;;;;10.95;9.75;;;13.30;99.90;;;;;;5053595;28;20033;-49
2023/05/08 04:28:36;;;;;;;14.98;9.50;;;13.30;99.90;;;;;;5071215;28;20043;-49
2023/05/08 04:31:03;;;;;;;12.35;9.23;;;13.40;99.90;;;;;;5071327;28;20024;-49
2023/05/08 04:33:29;;;;;;;10.35;9.02;;;13.30;99.90;;;;;;5071554;28;20020;-49
2023/05/08 04:35:55;;;;;;;10.63;8.45;;;13.40;99.90;;;;;;5071373;28;20041;-48
2023/05/08 04:38:21;;;;;;;10.20;8.95;;;13.40;99.90;;;;;;5070994;28;20036;-49
2023/05/08 04:40:46;;;;;;;13.90;9.48;;;13.30;99.90;;;;;;5070235;28;20048;-48
2023/05/08 04:43:12;;;;;;;10.07;9.15;;;13.40;99.90;;;;;;5071568;28;20484;-51
2023/05/08 04:45:37;;;;;;;10.32;9.20;;;13.40;99.90;;;;;;5071313;28;20481;-46
2023/05/08 04:48:03;;;;;;;10.85;9.23;;;13.40;99.90;;;;;;5071063;28;20028;-45
2023/05/08 04:50:29;;;;;;;10.95;9.85;;;13.40;99.90;;;;;;5070949;28;20023;-47
2023/05/08 04:52:54;;;;;;;10.27;9.05;;;13.40;99.90;;;;;;5071166;28;20029;-49
2023/05/08 04:55:20;;;;;;;10.48;9.40;;;13.40;99.90;;;;;;5071004;28;20028;-52
2023/05/08 04:57:45;;;;;;;11.70;9.85;;;13.40;99.90;;;;;;5070857;28;20514;-47
2023/05/08 05:00:11;;;;;;;10.15;8.65;;;13.40;99.90;;;;;;5053342;28;20024;-49
2023/05/08 05:02:37;;;;;;;11.13;9.85;;;13.40;99.90;;;;;;5071051;28;20035;-45
2023/05/08 05:05:03;;;;;;;10.98;9.82;;;13.40;99.90;;;;;;5070918;28;20024;-46
2023/05/08 05:07:28;;;;;;;11.15;10.02;;;13.40;99.90;;;;;;5070842;28;20070;-48
2023/05/08 05:09:53;;;;;;;13.18;10.63;;;13.40;99.90;;;;;;5071126;28;20036;-47
2023/05/08 05:12:19;;;;;;;10.95;9.77;;;13.40;99.90;;;;;;5070946;28;20052;-47
2023/05/08 05:14:45;;;;;;;10.45;9.25;;;13.50;99.90;;;;;;5071973;28;20031;-51
2023/05/08 05:17:10;;;;;;;9.90;8.55;;;13.50;99.90;;;;;;5056806;28;20056;-48
2023/05/08 05:19:35;;;;;;;10.85;9.48;;;13.40;99.90;;;;;;5075059;28;20553;-47
2023/05/08 05:22:01;;;;;;;11.57;9.38;;;13.40;99.90;;;;;;5074662;28;20032;-51
2023/05/08 05:24:26;;;;;;;10.50;9.52;;;13.40;99.90;;;;;;5074707;28;20526;-51
2023/05/08 05:26:52;;;;;;;10.75;9.38;;;13.40;99.90;;;;;;5074516;28;20504;-45
2023/05/08 05:29:18;;;;;;;12.10;10.82;;;13.40;99.90;;;;;;5074972;28;20031;-47
2023/05/08 05:31:43;;;;;;;11.13;10.02;;;13.40;99.90;;;;;;5074574;28;20036;-51
2023/05/08 05:34:09;;;;;;;13.52;9.07;;;13.40;99.90;;;;;;5074613;28;20400;-48
2023/05/08 05:36:34;;;;;;;10.25;8.98;;;13.40;99.90;;;;;;5076945;22;20110;-49
2023/05/08 05:39:00;;;;;;;10.25;9.25;;;13.40;99.90;;;;;;5054493;28;20393;-51
2023/05/08 05:41:25;;;;;;;10.63;9.48;;;13.40;99.90;;;;;;5054931;28;20032;-53
2023/05/08 05:43:51;;;;;;;10.40;9.40;;;13.40;99.90;;;;;;5055311;28;20419;-50
2023/05/08 05:46:17;;;;;;;11.38;10.27;;;13.50;99.90;;;;;;5055001;28;20032;-51
2023/05/08 05:48:43;;;;;;;10.32;9.32;;;13.50;99.90;;;;;;5055029;28;20021;-48
2023/05/08 05:51:08;;;;;;;11.45;8.93;;;13.50;99.90;;;;;;5054883;28;20024;-51
2023/05/08 05:53:34;;;;;;;9.80;8.82;;;13.50;99.90;;;;;;5055200;28;20374;-52
2023/05/08 05:55:59;;;;;;;11.30;9.82;;;13.50;99.90;;;;;;5054623;28;20044;-52
2023/05/08 05:58:25;;;;;;;11.07;9.98;;;13.50;99.90;;;;;;5054551;28;20051;-53
2023/05/08 06:00:50;;;;;;;13.07;9.40;;;13.50;99.90;;;;;;5036547;28;20029;-53
2023/05/08 06:03:16;;;;;;;12.15;9.55;;;13.50;99.90;;;;;;5054633;28;20025;-51
2023/05/08 06:05:41;;;;;;;11.15;10.05;;;13.50;99.90;;;;;;5054253;28;20040;-51
2023/05/08 06:08:07;;;;;;;10.60;9.60;;;13.50;99.90;;;;;;5054521;28;20024;-47
2023/05/08 06:10:33;;;;;;;9.93;8.93;;;13.60;99.90;;;;;;5054439;28;20021;-52
2023/05/08 06:12:59;;;;;;;11.13;9.80;;;13.60;99.90;;;;;;5055129;28;20056;-52
2023/05/08 06:15:24;;;;;;;10.20;9.20;;;13.60;99.90;;;;;;5054544;28;20033;-51
2023/05/08 06:17:51;;;;;;;15.18;10.05;;;13.60;99.90;;;;;;5054117;28;20029;-48
2023/05/08 06:20:17;;;;;;;10.80;9.70;;;13.60;99.90;;;;;;5054337;28;20027;-52
2023/05/08 06:22:42;;;;;;;10.70;9.70;;;13.60;99.90;;;;;;5054691;28;20021;-53
2023/05/08 06:25:08;;;;;;;10.20;9.20;;;13.60;99.90;;;;;;5054203;28;20496;-49
2023/05/08 06:27:34;;;;;;;11.50;9.68;;;13.60;99.90;;;;;;5034747;28;20017;-50
2023/05/08 06:30:00;;;;;;;9.98;9.02;;;13.70;99.90;;;;;;5054550;28;20108;-51
2023/05/08 06:32:25;;;;;;;11.25;9.15;;;13.60;99.90;;;;;;5053924;28;20025;-50
2023/05/08 06:34:51;;;;;;;11.18;9.95;;;13.60;99.90;;;;;;5053834;28;20028;-52
2023/05/08 06:37:17;;;;;;;11.40;10.30;;;13.60;99.90;;;;;;5035600;28;20024;-48
2023/05/08 06:39:42;;;;;;;10.88;9.30;;;13.60;99.90;;;;;;5053265;28;20040;-53
2023/05/08 06:42:08;;;;;;;11.30;10.13;;;13.60;99.90;;;;;;5054000;28;20037;-51
2023/05/08 06:44:34;;;;;;;12.93;11.10;;;13.60;99.90;;;;;;5054384;28;20112;-55
2023/05/08 06:47:00;;;;;;;13.63;10.23;;;13.70;99.90;;;;;;5053714;28;20112;-53
2023/05/08 06:49:25;;;;;;;14.05;9.75;;;13.70;99.90;;;;;;5054198;28;20025;-50
2023/05/08 06:51:51;;;;;;;10.95;9.80;;;13.70;99.90;;;;;;5035951;28;20028;-54
2023/05/08 06:54:17;;;;;;;13.65;9.88;;;13.70;99.90;;;;;;5053740;28;20079;-51
2023/05/08 06:56:43;;;;;;;11.40;9.85;;;13.80;99.90;;;;;;5053631;28;20471;-50
2023/05/08 06:59:09;;;;;;;11.25;10.05;;;13.80;99.90;;;;;;5053968;28;20056;-54
2023/05/08 07:01:36;;;;;;;11.30;9.88;;;13.80;99.90;;;;;;5053391;28;20021;-53
2023/05/08 07:04:01;;;;;;;17.40;9.52;;;13.90;99.90;;;;;;5053850;28;20025;-49
2023/05/08 07:06:27;;;;;;;9.70;8.73;;;13.90;99.90;;;;;;5053335;28;20111;-49
2023/05/08 07:08:53;;;;;;;10.13;9.13;;;13.90;99.90;;;;;;5053845;28;20021;-52
2023/05/08 07:11:18;;;;;;;11.63;9.88;;;13.90;99.90;;;;;;5053897;28;20485;-50
2023/05/08 07:13:47;;;;;;;12.90;10.68;;;13.90;99.90;;;;;;5053710;28;20013;-51
2023/05/08 07:16:13;;;;;;;11.20;10.10;;;13.90;99.90;;;;;;5053550;28;20017;-53
2023/05/08 07:18:38;;;;;;;10.40;9.30;;;13.90;99.90;;;;;;5053148;28;20053;-51
2023/05/08 07:21:04;;;;;;;20.98;10.15;;;14.00;99.90;;;;;;5053489;28;20075;-50
2023/05/08 07:23:29;;;;;;;11.02;10.00;;;13.90;99.90;;;;;;5053501;28;20515;-51
2023/05/08 07:25:56;;;;;;;13.23;9.60;;;14.00;99.90;;;;;;5053639;28;20056;-52
2023/05/08 07:28:21;;;;;;;10.77;9.77;;;13.90;99.90;;;;;;5053285;28;20023;-51
2023/05/08 07:30:47;;;;;;;11.10;9.02;;;14.00;99.90;;;;;;5052934;28;20459;-52
2023/05/08 07:33:12;;;;;;;12.23;10.02;;;14.20;99.90;;;;;;5035725;28;20104;-50
2023/05/08 07:35:38;;;;;;;11.18;10.10;;;14.10;99.90;;;;;;5052920;28;20028;-51
2023/05/08 07:38:04;;;;;;;12.38;9.82;;;14.10;99.90;;;;;;5052371;28;20024;-53
2023/05/08 07:40:29;;;;;;;11.30;9.25;;;14.10;99.90;;;;;;5052016;28;20039;-49
2023/05/08 07:42:55;;;;;;;12.82;9.75;;;14.10;99.90;;;;;;5053701;28;20060;-51
2023/05/08 07:45:20;;;;;;;12.60;9.82;;;14.20;99.90;;;;;;5052953;28;20074;-50
2023/05/08 07:47:54;;;;;;;10.48;9.32;;;14.20;99.90;;;;;;5052772;28;20402;-49
2023/05/08 07:50:22;;;;;;;11.95;9.43;;;14.20;99.90;;;;;;5052561;28;20028;-50
2023/05/08 07:52:48;;;;;;;12.07;9.45;;;14.30;99.90;;;;;;5052925;28;20423;-52
2023/05/08 07:55:13;;;;;;;10.52;9.52;;;14.40;99.90;;;;;;5052384;28;20021;-56
2023/05/08 07:57:41;;;;;;;11.00;9.63;;;14.50;99.90;;;;;;5047710;28;20237;-50
2023/05/08 08:00:08;;;;;;;9.57;8.68;;;14.60;99.90;;;;;;5051836;28;20025;-51
2023/05/08 08:02:34;;;;;;;9.90;8.75;;;14.60;99.90;;;;;;5051529;28;20017;-50
2023/05/08 08:05:00;;;;;;;10.55;9.52;;;14.60;99.90;;;;;;5052291;28;20146;-48
2023/05/08 08:07:25;;;;;;;10.88;8.20;;;14.60;99.90;;;;;;5052043;28;20021;-47
2023/05/08 08:09:51;;;;;;;9.68;8.77;;;14.70;99.90;;;;;;5051094;28;20025;-52
2023/05/08 08:12:16;;;;;;;9.60;8.68;;;14.70;99.90;;;;;;5052030;28;20630;-50
2023/05/08 08:14:42;;;;;;;9.57;8.57;;;14.80;99.90;;;;;;5039620;28;20048;-49
2023/05/08 08:17:07;;;;;;;11.00;9.98;;;14.80;99.90;;;;;;5053272;28;20112;-51
2023/05/08 08:19:33;;;;;;;11.38;10.27;;;14.80;99.90;;;;;;5062078;28;20043;-52
2023/05/08 08:21:58;;;;;;;11.65;9.75;;;14.80;99.90;;;;;;5061454;28;20029;-48
2023/05/08 08:24:24;;;;;;;9.90;8.90;;;14.70;99.90;;;;;;5035305;28;20029;-48
2023/05/08 08:26:50;;;;;;;11.48;9.45;;;14.70;99.90;;;;;;5054910;28;20096;-52
2023/05/08 08:29:15;;;;;;;10.82;9.73;;;14.80;99.90;;;;;;5056639;28;20017;-49
2023/05/08 08:31:41;;;;;;;11.25;10.15;;;14.90;99.90;;;;;;5055885;28;20485;-50
2023/05/08 08:34:06;;;;;;;13.80;9.80;;;14.90;99.90;;;;;;5057286;28;20022;-53
2023/05/08 08:36:32;;;;;;;10.32;8.90;;;15.00;99.90;;;;;;5056797;28;20043;-55
2023/05/08 08:38:58;;;;;;;11.18;10.07;;;15.00;99.90;;;;;;5057824;28;20025;-50
2023/05/08 08:41:23;;;;;;;11.52;9.18;;;14.90;99.90;;;;;;5038709;28;20438;-51
2023/05/08 08:43:49;;;;;;;12.18;9.43;;;15.00;99.90;;;;;;5056836;28;20140;-51
2023/05/08 08:46:18;;;;;;;16.42;9.23;;;15.10;99.90;;;;;;5057467;28;20100;-52
2023/05/08 08:48:46;;;;;;;10.32;9.27;;;15.20;99.90;;;;;;5057049;28;20021;-56
2023/05/08 08:51:34;;;;;;;19.05;11.07;;;15.20;99.90;;;;;;5056723;28;20028;-55
2023/05/08 08:54:08;;;;;;;11.00;9.48;;;15.20;99.90;;;;;;5057062;28;20033;-52
2023/05/08 08:56:38;;;;;;;11.93;9.98;;;15.30;99.90;;;;;;5054890;28;20028;-51
2023/05/08 08:59:04;;;;;;;12.00;10.38;;;15.40;99.90;;;;;;5055819;28;20431;-53
2023/05/08 09:01:34;;;;;;;11.23;9.80;;;15.30;99.90;;;;;;5054702;28;20116;-49
2023/05/08 09:04:01;;;;;;;45.75;34.20;;;14.90;99.90;;;;;;5054531;28;20036;-49
2023/05/08 09:06:27;;;;;;;61.30;44.25;;;15.50;99.90;;;;;;5054570;28;20025;-49
2023/05/08 09:08:56;;;;;;;12.52;10.30;;;15.50;99.90;;;;;;5054414;28;20018;-49
2023/05/08 09:11:23;;;;;;;12.63;9.30;;;15.50;99.90;;;;;;5055019;28;20029;-52
2023/05/08 09:13:49;;;;;;;10.50;9.40;;;15.50;99.90;;;;;;5054698;28;20021;-51
2023/05/08 09:16:14;;;;;;;11.20;9.98;;;15.40;99.90;;;;;;5053700;28;20025;-48
2023/05/08 09:18:40;;;;;;;11.93;9.60;;;15.40;99.90;;;;;;5053690;28;20032;-53
2023/05/08 09:21:06;;;;;;;12.90;9.88;;;15.50;99.90;;;;;;5054641;28;20412;-50
2023/05/08 09:23:31;;;;;;;10.27;9.27;;;15.50;99.90;;;;;;5053573;28;20076;-53
2023/05/08 09:25:57;;;;;;;11.80;9.48;;;15.40;99.90;;;;;;5053392;28;20029;-52
2023/05/08 09:28:25;;;;;;;11.25;9.43;;;15.50;99.90;;;;;;5052873;28;20053;-51
2023/05/08 09:30:55;;;;;;;11.00;9.77;;;15.50;99.90;;;;;;5052059;28;20494;-50
2023/05/08 09:33:23;;;;;;;10.05;9.05;;;15.50;99.90;;;;;;5053967;28;20017;-49
2023/05/08 09:35:48;;;;;;;10.35;9.07;;;15.50;99.90;;;;;;5053089;28;20029;-52
2023/05/08 09:38:36;;;;;;;11.25;9.23;;;15.50;99.90;;;;;;5053475;28;20052;-50
2023/05/08 09:41:07;;;;;;;11.45;10.27;;;15.60;99.90;;;;;;5053556;28;20087;-51
2023/05/08 09:43:33;;;;;;;10.93;8.57;;;15.70;99.90;;;;;;5053007;28;20029;-55
2023/05/08 09:46:20;;;;;;;10.77;9.48;;;15.80;99.90;;;;;;5035234;28;20024;-54
2023/05/08 09:48:45;;;;;;;11.40;9.45;;;15.90;99.90;;;;;;5053454;28;20040;-47
2023/05/08 09:51:11;;;;;;;11.48;9.82;;;15.90;99.90;;;;;;5035125;28;20017;-51
2023/05/08 09:53:36;;;;;;;10.25;8.85;;;15.80;99.90;;;;;;5051235;28;20342;-55
2023/05/08 09:56:03;;;;;;;11.05;8.82;;;15.90;99.90;;;;;;5033358;28;20033;-50
2023/05/08 09:58:39;;;;;;;17.52;9.00;;;15.80;99.90;;;;;;5050951;28;20047;-52
2023/05/08 10:01:06;;;;;;;11.00;9.70;;;15.80;99.90;;;;;;5046658;28;20516;-54
2023/05/08 10:03:48;;;;;;;11.45;8.98;;;15.90;99.90;;;;;;5042311;28;20075;-59
2023/05/08 10:06:14;;;;;;;9.10;8.30;;;15.90;99.90;;;;;;5041374;28;20485;-59
2023/05/08 10:08:40;;;;;;;11.93;9.77;;;15.90;99.90;;;;;;5050055;28;20060;-52
2023/05/08 10:11:16;;;;;;;12.32;8.88;;;15.90;99.90;;;;;;5039048;28;20017;-54
2023/05/08 10:13:43;;;;;;;14.50;8.98;;;15.80;99.90;;;;;;5057943;28;20387;-54
2023/05/08 10:16:14;;;;;;;10.40;9.30;;;15.80;99.90;;;;;;5057786;28;20021;-53
2023/05/08 10:18:46;;;;;;;12.60;9.35;;;15.90;99.90;;;;;;5056488;28;20025;-54
2023/05/08 10:21:12;;;;;;;9.82;8.82;;;16.00;99.90;;;;;;5040054;28;20304;-54
2023/05/08 10:23:41;;;;;;;11.27;8.05;;;16.10;99.90;;;;;;5039649;28;20040;-54
2023/05/08 10:26:13;;;;;;;13.45;8.65;;;16.10;99.90;;;;;;5036350;28;20021;-54
2023/05/08 10:28:46;;;;;;;10.35;8.98;;;16.10;99.90;;;;;;5037312;28;20017;-55
2023/05/08 10:31:17;;;;;;;9.27;8.38;;;16.10;99.90;;;;;;5053833;28;20021;-56
2023/05/08 10:33:45;;;;;;;10.77;8.43;;;16.20;99.90;;;;;;5053969;28;20055;-56
2023/05/08 10:36:12;;;;;;;28.83;19.30;;;16.30;99.90;;;;;;5053705;28;20064;-54
2023/05/08 10:38:40;;;;;;;11.07;9.20;;;16.50;99.90;;;;;;5053195;28;20028;-51
2023/05/08 10:41:05;;;;;;;11.10;9.93;;;16.60;99.90;;;;;;5035400;28;20035;-49
2023/05/08 10:43:32;;;;;;;9.95;8.48;;;16.70;99.90;;;;;;5053395;28;20029;-54
2023/05/08 10:46:06;;;;;;;10.80;8.65;;;16.80;99.90;;;;;;5055515;28;20028;-58
2023/05/08 10:48:43;;;;;;;10.27;9.27;;;16.80;99.90;;;;;;5057433;28;20036;-53
2023/05/08 10:51:17;;;;;;;10.73;8.10;;;16.70;99.90;;;;;;5058898;28;20397;-61
2023/05/08 10:53:58;;;;;;;11.23;8.73;;;16.70;99.90;;;;;;5054549;28;20021;-53
2023/05/08 10:56:27;;;;;;;9.80;8.90;;;16.60;99.90;;;;;;5052749;28;20056;-55
2023/05/08 10:58:57;;;;;;;9.43;8.43;;;16.50;99.90;;;;;;5053464;28;20024;-53
2023/05/08 11:01:23;;;;;;;10.80;9.70;;;16.50;99.90;;;;;;5075469;28;20039;-58
2023/05/08 11:03:49;;;;;;;11.07;9.02;;;16.50;99.90;;;;;;5074926;28;20046;-53
2023/05/08 11:06:16;;;;;;;12.00;9.20;;;16.50;99.90;;;;;;5063848;28;20029;-55
2023/05/08 11:08:49;;;;;;;11.50;10.18;;;16.60;99.90;;;;;;5055549;28;20162;-56
2023/05/08 11:11:28;;;;;;;11.50;10.02;;;16.80;99.90;;;;;;5034474;28;20028;-53
2023/05/08 11:14:08;;;;;;;12.23;9.57;;;16.90;99.90;;;;;;5052132;28;20389;-55
2023/05/08 11:16:52;;;;;;;10.13;9.13;;;17.10;99.90;;;;;;5050053;28;20025;-53
2023/05/08 11:19:19;;;;;;;11.10;10.00;;;17.20;99.90;;;;;;5052547;28;20056;-56
2023/05/08 11:22:10;;;;;;;9.95;8.90;;;17.20;99.90;;;;;;5014841;28;20175;-55
2023/05/08 11:24:36;;;;;;;11.48;9.15;;;17.20;99.90;;;;;;5031391;28;20596;-54
2023/05/08 11:27:02;;;;;;;10.43;9.35;;;17.20;99.90;;;;;;5032870;28;20033;-50
2023/05/08 11:29:27;;;;;;;12.70;9.77;;;17.30;99.90;;;;;;5032561;28;20109;-53
2023/05/08 11:31:53;;;;;;;11.63;10.45;;;17.30;99.90;;;;;;5032234;28;20017;-56
2023/05/08 11:34:40;;;;;;;12.90;9.57;;;17.40;99.90;;;;;;5063660;28;20024;-55
2023/05/08 11:37:09;;;;;;;11.52;9.35;;;17.40;99.90;;;;;;5072993;22;20048;-55
2023/05/08 11:39:35;;;;;;;10.55;8.85;;;17.50;99.90;;;;;;5058949;28;20028;-55
2023/05/08 11:42:28;;;;;;;10.45;9.30;;;17.60;99.90;;;;;;5051915;28;20078;-54
2023/05/08 11:45:08;;;;;;;12.15;9.25;;;17.70;99.90;;;;;;5032464;28;20556;-51
2023/05/08 11:47:42;;;;;;;10.10;8.85;;;17.80;99.90;;;;;;5025159;28;20037;-56
2023/05/08 11:50:12;;;;;;;10.30;9.30;;;17.70;99.90;;;;;;5052127;28;20021;-54
2023/05/08 11:52:39;;;;;;;10.15;9.10;;;18.30;99.90;;;;;;5034039;28;20024;-53
2023/05/08 11:55:10;;;;;;;10.77;9.27;;;17.90;99.90;;;;;;5052733;28;20366;-57
2023/05/08 11:57:35;;;;;;;9.63;8.70;;;17.90;99.90;;;;;;5051820;28;20514;-54
2023/05/08 12:00:09;;;;;;;10.13;9.10;;;18.00;99.90;;;;;;5039313;28;20119;-58
2023/05/08 12:02:35;;;;;;;10.95;8.70;;;17.90;99.90;;;;;;5032549;28;20037;-56
2023/05/08 12:05:00;;;;;;;9.80;8.80;;;17.90;99.90;;;;;;5032771;28;20503;-54
2023/05/08 12:07:26;;;;;;;12.90;9.52;;;17.70;99.90;;;;;;5032025;28;20033;-57
2023/05/08 12:09:52;;;;;;;10.60;9.45;;;17.80;99.90;;;;;;5032262;28;20504;-55
2023/05/08 12:12:17;;;;;;;11.40;10.32;;;17.70;99.90;;;;;;5057701;28;20068;-52
2023/05/08 12:14:43;;;;;;;17.27;14.45;;;17.70;99.90;;;;;;5071705;28;20396;-55
2023/05/08 12:17:09;;;;;;;10.38;9.45;;;17.70;99.90;;;;;;5071325;28;20036;-54
2023/05/08 12:19:34;;;;;;;10.95;9.25;;;17.60;99.90;;;;;;5071530;28;20024;-54
2023/05/08 12:22:00;;;;;;;10.60;9.50;;;17.70;99.90;;;;;;5053176;28;20115;-52
2023/05/08 12:24:25;;;;;;;11.15;9.80;;;17.70;99.90;;;;;;5048812;28;20020;-52
2023/05/08 12:26:55;;;;;;;10.63;9.52;;;17.80;99.90;;;;;;5031405;28;20105;-58
2023/05/08 12:29:20;;;;;;;10.35;9.35;;;17.70;99.90;;;;;;5032457;28;20021;-56
2023/05/08 12:31:47;;;;;;;10.35;9.35;;;17.60;99.90;;;;;;5031263;28;20068;-55
2023/05/08 12:34:12;;;;;;;11.10;10.00;;;17.70;99.90;;;;;;5031968;28;20024;-54
2023/05/08 12:36:38;;;;;;;11.48;9.15;;;17.70;99.90;;;;;;5044519;28;21064;-56
2023/05/08 12:39:15;;;;;;;11.07;9.98;;;17.70;99.90;;;;;;5052451;28;20052;-54
2023/05/08 12:41:48;;;;;;;10.23;9.13;;;17.80;99.90;;;;;;5051673;28;20067;-53
2023/05/08 12:44:23;;;;;;;9.82;8.93;;;17.90;99.90;;;;;;5052703;28;20048;-53